createdAt,value
2018-09-05T00:00:02.447Z,14.6
2018-09-05T00:15:02.734Z,14.6
2018-09-05T00:30:03.132Z,14.3
2018-09-05T00:45:02.411Z,14.4
2018-09-05T01:00:02.728Z,14.3
2018-09-05T01:15:03.299Z,14.4
2018-09-05T01:30:02.707Z,14.2
2018-09-05T01:45:03.114Z,14.1
2018-09-05T02:00:02.433Z,14.2
2018-09-05T02:15:02.725Z,14.3
2018-09-05T02:30:03.144Z,14.2
2018-09-05T02:45:02.419Z,14.1
2018-09-05T03:00:02.737Z,14
2018-09-05T03:15:03.081Z,13.8
2018-09-05T03:30:02.532Z,13.6
2018-09-05T03:45:02.840Z,13.5
2018-09-05T04:00:03.293Z,13.3
2018-09-05T04:15:02.617Z,13.2
2018-09-05T04:30:03.029Z,13.1
2018-09-05T04:45:02.451Z,13.1
2018-09-05T05:00:02.781Z,13.2
2018-09-05T05:15:03.101Z,13.3
2018-09-05T05:30:02.519Z,13.4
2018-09-05T05:45:02.861Z,13.6
2018-09-05T06:00:03.211Z,13.8
2018-09-05T06:15:02.486Z,14.1
2018-09-05T06:30:03.013Z,14.2
2018-09-05T06:45:02.349Z,14.5
2018-09-05T07:00:02.735Z,14.6
2018-09-05T07:15:03.091Z,15.2
2018-09-05T07:30:02.537Z,15.7
2018-09-05T07:45:02.902Z,16.1
2018-09-05T08:00:03.212Z,16.5
2018-09-05T08:15:02.520Z,17.4
2018-09-05T08:30:03.183Z,18.8
2018-09-05T08:45:02.752Z,19.4
2018-09-05T09:00:03.386Z,20.4
2018-09-05T09:15:02.786Z,20.9
2018-09-05T09:30:03.212Z,21.2
2018-09-05T09:45:02.541Z,21.8
2018-09-05T10:00:02.848Z,21.2
2018-09-05T10:15:03.239Z,21.6
2018-09-05T10:30:02.735Z,23.7
2018-09-05T10:45:03.019Z,22.9
2018-09-05T11:00:02.339Z,23.7
2018-09-05T11:15:02.622Z,24.1
2018-09-05T11:30:02.990Z,23.4
2018-09-05T11:45:02.340Z,23.4
2018-09-05T12:00:02.684Z,23.5
2018-09-05T12:15:03.017Z,24.5
2018-09-05T12:30:02.433Z,25.6
2018-09-05T12:45:02.738Z,24.8
2018-09-05T13:00:03.100Z,24.2
2018-09-05T13:15:02.392Z,26.1
2018-09-05T13:30:02.815Z,26.5
2018-09-05T13:45:03.168Z,24.8
2018-09-05T14:00:02.522Z,25.3
2018-09-05T14:15:02.814Z,25.6
2018-09-05T14:30:03.223Z,24.9
2018-09-05T14:45:02.641Z,24.4
2018-09-05T15:00:03.057Z,25.4
2018-09-05T15:15:02.436Z,24.8
2018-09-05T15:30:02.865Z,23.9
2018-09-05T15:45:03.206Z,23.7
2018-09-05T16:00:02.604Z,23.2
2018-09-05T16:15:02.989Z,23.1
2018-09-05T16:30:02.389Z,22.7
2018-09-05T16:45:02.735Z,22.1
2018-09-05T17:00:03.125Z,21.7
2018-09-05T17:15:02.410Z,21
2018-09-05T17:30:02.828Z,20.4
2018-09-05T17:45:03.130Z,19.8
2018-09-05T18:00:02.402Z,19.1
2018-09-05T18:15:02.717Z,18.7
2018-09-05T18:30:03.142Z,18.3
2018-09-05T18:45:02.425Z,18
2018-09-05T19:00:02.809Z,17.8
2018-09-05T19:15:03.098Z,17.4
2018-09-05T19:30:02.636Z,17.2
2018-09-05T19:45:02.920Z,16.9
2018-09-05T20:00:03.314Z,16.6
2018-09-05T20:15:02.743Z,16.5
2018-09-05T20:30:03.150Z,16.4
2018-09-05T20:45:02.467Z,16.2
2018-09-05T21:00:02.814Z,16.2
2018-09-05T21:15:03.124Z,16
2018-09-05T21:30:02.512Z,15.9
2018-09-05T21:45:02.856Z,15.5
2018-09-05T22:00:03.205Z,15.4
2018-09-05T22:15:02.521Z,15.2
2018-09-05T22:30:02.919Z,15.1
2018-09-05T22:45:03.244Z,15.1
2018-09-05T23:00:02.577Z,14.8
2018-09-05T23:15:02.914Z,14.6
2018-09-05T23:30:02.328Z,14.3
2018-09-05T23:45:02.652Z,14.4
